This is the latest recevied weather packets stored in our database for station/object KE5VT. If no packets are shown the sender has not sent any weather packets the latest 10 day(s).
| Time | Temp. | Humidity | Pressure | Rain* | Wind** | Luminosity | Snow |
|---|---|---|---|---|---|---|---|
| 1787763230 | 27.78° C | 74% | 1014.5 hPa | 0 mm | - | 122 W/m² | - |
| 1787762926 | 27.78° C | 74% | 1014.5 hPa | 0 mm | - | 164 W/m² | - |
| 1787762625 | 27.78° C | 76% | 1014.8 hPa | 0 mm | - | 107 W/m² | - |
| 1787762323 | 27.78° C | 76% | 1014.7 hPa | 0 mm | - | 113 W/m² | - |
| 1787762022 | 27.78° C | 75% | 1014.7 hPa | 0 mm | - | 150 W/m² | - |
| 1787761717 | 28.89° C | 73% | 1014.8 hPa | 0 mm | - | 144 W/m² | - |
| 1787761417 | 28.89° C | 73% | 1014.9 hPa | 0 mm | - | 328 W/m² | - |
| 1787761118 | 28.33° C | 74% | 1014.8 hPa | 0 mm | - | 659 W/m² | - |
| 1787760817 | 28.89° C | 73% | 1014.9 hPa | 0 mm | - | 640 W/m² | - |
| 1787760515 | 29.44° C | 69% | 1014.8 hPa | 0 mm | - | 617 W/m² | - |
| 1787760210 | 28.89° C | 74% | 1014.8 hPa | 0 mm | - | 645 W/m² | - |
| 1787759907 | 28.89° C | 74% | 1015 hPa | 0 mm | - | 574 W/m² | - |
| 1787759602 | 27.78° C | 73% | 1014.9 hPa | 0 mm | - | 583 W/m² | - |
| 1787759298 | 27.22° C | 77% | 1015 hPa | 0 mm | - | 595 W/m² | - |
| 1787758993 | 27.22° C | 78% | 1015.1 hPa | 0 mm | - | 136 W/m² | - |
| 1787758693 | 28.33° C | 77% | 1015.1 hPa | 0 mm | - | 152 W/m² | - |
| 1787758388 | 27.78° C | 75% | 1015.3 hPa | 0 mm | - | 496 W/m² | - |
| 1787758086 | 27.78° C | 78% | 1015.3 hPa | 0 mm | - | 346 W/m² | - |
| 1787757783 | 27.22° C | 78% | 1015.4 hPa | 0 mm | - | 175 W/m² | - |
| 1787757483 | 26.67° C | 82% | 1015.3 hPa | 0 mm | - | 514 W/m² | - |
| 1787757177 | 27.22° C | 80% | 1015.6 hPa | 0 mm | - | 142 W/m² | - |
| 1787756876 | 26.67° C | 83% | 1015.1 hPa | 0 mm | - | 473 W/m² | - |
| 1787756572 | 26.11° C | 84% | 1015.3 hPa | 0 mm | - | 270 W/m² | - |
| 1787756270 | 26.11° C | 86% | 1015.4 hPa | 0 mm | - | 232 W/m² | - |
| 1787755966 | 26.11° C | 85% | 1015 hPa | 0 mm | - | 106 W/m² | - |
* Rain latest hour (hover to see other rain measurements)
** Current wind speed in m/s (hover to see current wind gust speed)